sensor_id;sensor_type;location;lat;lon;timestamp;pressure;altitude;pressure_sealevel;temperature;humidity
50011;BME280;35899;50.352;19.390;2023-03-31T00:02:06;96968.20;;;8.53;96.11
50011;BME280;35899;50.352;19.390;2023-03-31T00:04:32;96964.82;;;8.55;96.02
50011;BME280;35899;50.352;19.390;2023-03-31T00:06:59;96964.60;;;8.57;96.35
50011;BME280;35899;50.352;19.390;2023-03-31T00:09:25;96959.72;;;8.60;96.39
50011;BME280;35899;50.352;19.390;2023-03-31T00:11:52;96962.14;;;8.63;96.11
50011;BME280;35899;50.352;19.390;2023-03-31T00:14:18;96961.78;;;8.65;96.17
50011;BME280;35899;50.352;19.390;2023-03-31T00:16:46;96953.95;;;8.66;95.95
50011;BME280;35899;50.352;19.390;2023-03-31T00:19:15;96952.04;;;8.66;95.80
50011;BME280;35899;50.352;19.390;2023-03-31T00:21:41;96953.16;;;8.67;95.87
50011;BME280;35899;50.352;19.390;2023-03-31T00:24:08;96953.13;;;8.68;96.25
50011;BME280;35899;50.352;19.390;2023-03-31T00:26:36;96955.33;;;8.69;95.84
50011;BME280;35899;50.352;19.390;2023-03-31T00:29:03;96956.14;;;8.69;95.82
50011;BME280;35899;50.352;19.390;2023-03-31T00:31:30;96956.29;;;8.69;95.99
50011;BME280;35899;50.352;19.390;2023-03-31T00:33:56;96960.82;;;8.69;95.68
50011;BME280;35899;50.352;19.390;2023-03-31T00:36:23;96953.80;;;8.68;95.76
50011;BME280;35899;50.352;19.390;2023-03-31T00:38:49;96954.23;;;8.69;95.82
50011;BME280;35899;50.352;19.390;2023-03-31T00:41:16;96951.37;;;8.68;95.74
50011;BME280;35899;50.352;19.390;2023-03-31T00:44:01;96953.13;;;8.68;95.64
50011;BME280;35899;50.352;19.390;2023-03-31T00:46:32;96953.85;;;8.67;95.76
50011;BME280;35899;50.352;19.390;2023-03-31T00:49:00;96952.44;;;8.68;95.80
50011;BME280;35899;50.352;19.390;2023-03-31T00:51:27;96949.76;;;8.67;95.51
50011;BME280;35899;50.352;19.390;2023-03-31T00:53:56;96948.13;;;8.66;95.77
50011;BME280;35899;50.352;19.390;2023-03-31T00:56:23;96948.71;;;8.65;95.75
50011;BME280;35899;50.352;19.390;2023-03-31T00:58:49;96949.27;;;8.64;95.48
50011;BME280;35899;50.352;19.390;2023-03-31T01:01:17;96947.66;;;8.63;95.30
50011;BME280;35899;50.352;19.390;2023-03-31T01:03:44;96953.27;;;8.61;95.55
50011;BME280;35899;50.352;19.390;2023-03-31T01:06:12;96953.02;;;8.60;95.47
50011;BME280;35899;50.352;19.390;2023-03-31T01:08:39;96951.55;;;8.59;95.52
50011;BME280;35899;50.352;19.390;2023-03-31T01:11:08;96949.23;;;8.58;95.44
50011;BME280;35899;50.352;19.390;2023-03-31T01:13:36;96949.71;;;8.56;95.58
50011;BME280;35899;50.352;19.390;2023-03-31T01:16:03;96951.54;;;8.55;95.45
50011;BME280;35899;50.352;19.390;2023-03-31T01:18:30;96952.97;;;8.54;95.33
50011;BME280;35899;50.352;19.390;2023-03-31T01:36:25;96943.98;;;8.43;95.65
50011;BME280;35899;50.352;19.390;2023-03-31T01:44:27;96934.48;;;8.41;95.60
50011;BME280;35899;50.352;19.390;2023-03-31T01:47:05;96933.88;;;8.40;95.69
50011;BME280;35899;50.352;19.390;2023-03-31T01:52:02;96938.66;;;8.38;95.75
50011;BME280;35899;50.352;19.390;2023-03-31T01:57:12;96940.80;;;8.35;95.52
50011;BME280;35899;50.352;19.390;2023-03-31T02:02:34;96944.60;;;8.26;95.29
50011;BME280;35899;50.352;19.390;2023-03-31T02:05:05;96943.48;;;8.20;95.29
50011;BME280;35899;50.352;19.390;2023-03-31T02:07:48;96945.44;;;8.12;95.17
50011;BME280;35899;50.352;19.390;2023-03-31T02:10:16;96949.58;;;8.03;95.12
50011;BME280;35899;50.352;19.390;2023-03-31T02:12:43;96949.33;;;7.97;95.19
50011;BME280;35899;50.352;19.390;2023-03-31T02:15:13;96953.97;;;7.93;95.25
50011;BME280;35899;50.352;19.390;2023-03-31T02:17:41;96954.23;;;7.88;95.22
50011;BME280;35899;50.352;19.390;2023-03-31T02:20:09;96945.83;;;7.84;95.54
50011;BME280;35899;50.352;19.390;2023-03-31T02:22:40;96947.48;;;7.83;95.70
50011;BME280;35899;50.352;19.390;2023-03-31T02:25:10;96950.68;;;7.81;95.87
50011;BME280;35899;50.352;19.390;2023-03-31T02:27:40;96946.24;;;7.81;96.01
50011;BME280;35899;50.352;19.390;2023-03-31T02:30:08;96945.95;;;7.80;95.98
50011;BME280;35899;50.352;19.390;2023-03-31T02:32:36;96945.43;;;7.80;96.14
50011;BME280;35899;50.352;19.390;2023-03-31T02:35:04;96944.34;;;7.81;96.16
50011;BME280;35899;50.352;19.390;2023-03-31T02:37:31;96940.54;;;7.81;96.12
50011;BME280;35899;50.352;19.390;2023-03-31T02:39:59;96938.15;;;7.81;96.10
50011;BME280;35899;50.352;19.390;2023-03-31T02:42:26;96937.13;;;7.81;96.21
50011;BME280;35899;50.352;19.390;2023-03-31T02:44:53;96936.45;;;7.81;96.33
50011;BME280;35899;50.352;19.390;2023-03-31T02:47:20;96938.23;;;7.80;95.99
50011;BME280;35899;50.352;19.390;2023-03-31T02:49:57;96932.81;;;7.79;96.30
50011;BME280;35899;50.352;19.390;2023-03-31T02:55:34;96933.89;;;7.78;96.31
50011;BME280;35899;50.352;19.390;2023-03-31T03:01:22;96936.02;;;7.75;96.29
50011;BME280;35899;50.352;19.390;2023-03-31T03:06:50;96940.66;;;7.73;96.41
50011;BME280;35899;50.352;19.390;2023-03-31T03:15:12;96939.35;;;7.72;96.22
50011;BME280;35899;50.352;19.390;2023-03-31T03:17:48;96939.52;;;7.72;96.56
50011;BME280;35899;50.352;19.390;2023-03-31T03:20:19;96931.33;;;7.71;96.46
50011;BME280;35899;50.352;19.390;2023-03-31T03:22:48;96935.24;;;7.69;96.29
50011;BME280;35899;50.352;19.390;2023-03-31T03:25:15;96935.34;;;7.68;96.43
50011;BME280;35899;50.352;19.390;2023-03-31T03:27:41;96937.92;;;7.65;96.46
50011;BME280;35899;50.352;19.390;2023-03-31T03:30:09;96941.98;;;7.64;96.56
50011;BME280;35899;50.352;19.390;2023-03-31T03:32:36;96945.30;;;7.63;96.44
50011;BME280;35899;50.352;19.390;2023-03-31T03:35:02;96941.92;;;7.63;96.50
50011;BME280;35899;50.352;19.390;2023-03-31T03:37:30;96946.10;;;7.62;96.35
50011;BME280;35899;50.352;19.390;2023-03-31T03:39:56;96941.27;;;7.62;96.49
50011;BME280;35899;50.352;19.390;2023-03-31T03:42:23;96935.48;;;7.61;96.69
50011;BME280;35899;50.352;19.390;2023-03-31T03:44:49;96934.89;;;7.60;96.54
50011;BME280;35899;50.352;19.390;2023-03-31T03:47:16;96932.06;;;7.61;96.61
50011;BME280;35899;50.352;19.390;2023-03-31T03:49:42;96924.55;;;7.60;96.66
50011;BME280;35899;50.352;19.390;2023-03-31T03:52:09;96921.66;;;7.60;96.65
50011;BME280;35899;50.352;19.390;2023-03-31T03:54:35;96921.42;;;7.58;96.58
50011;BME280;35899;50.352;19.390;2023-03-31T03:57:04;96917.70;;;7.57;96.69
50011;BME280;35899;50.352;19.390;2023-03-31T03:59:31;96912.54;;;7.57;96.61
50011;BME280;35899;50.352;19.390;2023-03-31T04:01:57;96910.27;;;7.57;96.73
50011;BME280;35899;50.352;19.390;2023-03-31T04:04:23;96907.19;;;7.57;96.92
50011;BME280;35899;50.352;19.390;2023-03-31T04:06:50;96905.13;;;7.57;96.85
50011;BME280;35899;50.352;19.390;2023-03-31T04:09:16;96904.85;;;7.56;96.66
50011;BME280;35899;50.352;19.390;2023-03-31T04:11:43;96904.52;;;7.54;96.69
50011;BME280;35899;50.352;19.390;2023-03-31T04:14:09;96903.42;;;7.50;96.79
50011;BME280;35899;50.352;19.390;2023-03-31T04:16:36;96901.34;;;7.46;96.48
50011;BME280;35899;50.352;19.390;2023-03-31T04:19:02;96896.75;;;7.40;96.52
50011;BME280;35899;50.352;19.390;2023-03-31T04:21:29;96900.86;;;7.36;96.41
50011;BME280;35899;50.352;19.390;2023-03-31T04:23:56;96896.05;;;7.31;96.56
50011;BME280;35899;50.352;19.390;2023-03-31T04:26:23;96895.59;;;7.28;96.58
50011;BME280;35899;50.352;19.390;2023-03-31T04:28:50;96891.40;;;7.24;96.50
50011;BME280;35899;50.352;19.390;2023-03-31T04:31:16;96884.20;;;7.19;96.45
50011;BME280;35899;50.352;19.390;2023-03-31T04:33:43;96883.51;;;7.14;96.36
50011;BME280;35899;50.352;19.390;2023-03-31T04:36:09;96884.06;;;7.09;96.55
50011;BME280;35899;50.352;19.390;2023-03-31T04:38:36;96883.34;;;7.07;96.69
50011;BME280;35899;50.352;19.390;2023-03-31T04:41:02;96889.04;;;7.07;96.61
50011;BME280;35899;50.352;19.390;2023-03-31T04:43:28;96889.41;;;7.07;96.79
50011;BME280;35899;50.352;19.390;2023-03-31T04:45:55;96886.69;;;7.08;96.85
50011;BME280;35899;50.352;19.390;2023-03-31T04:48:21;96883.92;;;7.11;96.98
50011;BME280;35899;50.352;19.390;2023-03-31T04:50:48;96884.55;;;7.14;97.01
50011;BME280;35899;50.352;19.390;2023-03-31T04:53:14;96880.72;;;7.17;97.02
50011;BME280;35899;50.352;19.390;2023-03-31T04:55:41;96878.48;;;7.19;97.26
50011;BME280;35899;50.352;19.390;2023-03-31T04:58:07;96873.86;;;7.21;97.19
50011;BME280;35899;50.352;19.390;2023-03-31T05:00:36;96872.46;;;7.24;97.36
50011;BME280;35899;50.352;19.390;2023-03-31T05:03:02;96866.91;;;7.27;97.49
50011;BME280;35899;50.352;19.390;2023-03-31T05:05:29;96865.48;;;7.30;97.26
50011;BME280;35899;50.352;19.390;2023-03-31T05:07:55;96862.65;;;7.33;97.34
50011;BME280;35899;50.352;19.390;2023-03-31T05:10:24;96861.27;;;7.38;97.37
50011;BME280;35899;50.352;19.390;2023-03-31T05:12:50;96862.21;;;7.42;97.35
50011;BME280;35899;50.352;19.390;2023-03-31T05:15:16;96855.13;;;7.44;97.18
50011;BME280;35899;50.352;19.390;2023-03-31T05:17:43;96850.88;;;7.46;97.04
50011;BME280;35899;50.352;19.390;2023-03-31T05:20:10;96850.77;;;7.48;96.89
50011;BME280;35899;50.352;19.390;2023-03-31T05:22:37;96854.83;;;7.46;96.80
50011;BME280;35899;50.352;19.390;2023-03-31T05:25:04;96853.42;;;7.42;96.57
50011;BME280;35899;50.352;19.390;2023-03-31T05:27:31;96853.06;;;7.39;96.53
50011;BME280;35899;50.352;19.390;2023-03-31T05:29:58;96850.88;;;7.41;96.53
50011;BME280;35899;50.352;19.390;2023-03-31T05:32:28;96848.20;;;7.50;96.63
50011;BME280;35899;50.352;19.390;2023-03-31T05:34:55;96849.61;;;7.56;96.74
50011;BME280;35899;50.352;19.390;2023-03-31T05:37:22;96844.27;;;7.56;96.65
50011;BME280;35899;50.352;19.390;2023-03-31T05:39:49;96842.14;;;7.68;96.86
50011;BME280;35899;50.352;19.390;2023-03-31T05:42:15;96842.21;;;7.79;96.69
50011;BME280;35899;50.352;19.390;2023-03-31T05:44:42;96840.08;;;7.94;96.81
50011;BME280;35899;50.352;19.390;2023-03-31T05:47:09;96839.24;;;8.09;96.71
50011;BME280;35899;50.352;19.390;2023-03-31T05:49:35;96837.23;;;8.23;96.47
50011;BME280;35899;50.352;19.390;2023-03-31T05:52:05;96837.46;;;8.36;96.21
50011;BME280;35899;50.352;19.390;2023-03-31T05:54:31;96836.04;;;8.48;95.98
50011;BME280;35899;50.352;19.390;2023-03-31T05:56:58;96837.70;;;8.60;95.66
50011;BME280;35899;50.352;19.390;2023-03-31T05:59:25;96840.33;;;8.70;95.24
50011;BME280;35899;50.352;19.390;2023-03-31T06:01:58;96839.19;;;8.80;94.80
50011;BME280;35899;50.352;19.390;2023-03-31T06:04:24;96839.06;;;8.90;94.58
50011;BME280;35899;50.352;19.390;2023-03-31T06:06:51;96834.25;;;9.00;94.32
50011;BME280;35899;50.352;19.390;2023-03-31T06:09:20;96829.81;;;9.11;93.90
50011;BME280;35899;50.352;19.390;2023-03-31T06:11:47;96830.46;;;9.22;93.76
50011;BME280;35899;50.352;19.390;2023-03-31T06:14:16;96834.41;;;9.32;93.38
50011;BME280;35899;50.352;19.390;2023-03-31T06:16:43;96830.94;;;9.41;93.15
50011;BME280;35899;50.352;19.390;2023-03-31T06:19:09;96834.95;;;9.47;92.52
50011;BME280;35899;50.352;19.390;2023-03-31T06:21:36;96831.91;;;9.54;92.49
50011;BME280;35899;50.352;19.390;2023-03-31T06:24:05;96835.80;;;9.62;91.84
50011;BME280;35899;50.352;19.390;2023-03-31T06:26:33;96834.53;;;9.69;91.66
50011;BME280;35899;50.352;19.390;2023-03-31T06:29:05;96838.91;;;9.74;91.26
50011;BME280;35899;50.352;19.390;2023-03-31T06:31:34;96840.47;;;9.74;90.45
50011;BME280;35899;50.352;19.390;2023-03-31T06:34:08;96844.49;;;9.79;90.42
50011;BME280;35899;50.352;19.390;2023-03-31T06:36:40;96837.42;;;9.77;90.10
50011;BME280;35899;50.352;19.390;2023-03-31T06:39:14;96836.46;;;9.85;90.20
50011;BME280;35899;50.352;19.390;2023-03-31T06:41:43;96833.49;;;9.95;90.09
50011;BME280;35899;50.352;19.390;2023-03-31T06:44:26;96831.70;;;10.06;89.83
50011;BME280;35899;50.352;19.390;2023-03-31T06:46:55;96826.98;;;10.15;89.21
50011;BME280;35899;50.352;19.390;2023-03-31T06:49:22;96824.19;;;10.22;88.97
50011;BME280;35899;50.352;19.390;2023-03-31T06:51:48;96821.27;;;10.33;89.43
50011;BME280;35899;50.352;19.390;2023-03-31T06:54:15;96815.55;;;10.44;89.10
50011;BME280;35899;50.352;19.390;2023-03-31T06:56:42;96817.43;;;10.50;87.85
50011;BME280;35899;50.352;19.390;2023-03-31T06:59:08;96815.48;;;10.56;87.76
50011;BME280;35899;50.352;19.390;2023-03-31T07:01:35;96819.07;;;10.65;87.69
50011;BME280;35899;50.352;19.390;2023-03-31T07:04:02;96810.01;;;10.73;87.60
50011;BME280;35899;50.352;19.390;2023-03-31T07:06:28;96810.58;;;10.83;87.40
50011;BME280;35899;50.352;19.390;2023-03-31T07:08:55;96805.63;;;10.92;86.71
50011;BME280;35899;50.352;19.390;2023-03-31T07:11:22;96808.55;;;11.02;86.34
50011;BME280;35899;50.352;19.390;2023-03-31T07:13:48;96810.67;;;11.10;85.52
50011;BME280;35899;50.352;19.390;2023-03-31T07:16:14;96811.81;;;11.21;85.16
50011;BME280;35899;50.352;19.390;2023-03-31T07:18:41;96805.50;;;11.37;85.19
50011;BME280;35899;50.352;19.390;2023-03-31T07:21:11;96805.25;;;11.59;85.05
50011;BME280;35899;50.352;19.390;2023-03-31T07:23:37;96800.40;;;11.76;85.00
50011;BME280;35899;50.352;19.390;2023-03-31T07:26:05;96796.23;;;11.85;84.53
50011;BME280;35899;50.352;19.390;2023-03-31T07:28:31;96796.02;;;11.94;84.21
50011;BME280;35899;50.352;19.390;2023-03-31T07:30:58;96799.80;;;12.01;82.44
50011;BME280;35899;50.352;19.390;2023-03-31T07:33:24;96795.78;;;12.01;81.88
50011;BME280;35899;50.352;19.390;2023-03-31T07:35:51;96793.92;;;11.95;80.64
50011;BME280;35899;50.352;19.390;2023-03-31T07:38:34;96795.71;;;11.89;79.94
50011;BME280;35899;50.352;19.390;2023-03-31T07:41:00;96795.06;;;11.93;80.44
50011;BME280;35899;50.352;19.390;2023-03-31T07:43:35;96793.85;;;12.05;80.56
50011;BME280;35899;50.352;19.390;2023-03-31T07:46:01;96789.38;;;12.18;80.40
50011;BME280;35899;50.352;19.390;2023-03-31T07:48:28;96786.98;;;12.20;79.10
50011;BME280;35899;50.352;19.390;2023-03-31T07:50:54;96781.98;;;12.21;79.01
50011;BME280;35899;50.352;19.390;2023-03-31T07:53:26;96783.71;;;12.25;78.53
50011;BME280;35899;50.352;19.390;2023-03-31T07:55:55;96781.73;;;12.33;78.66
50011;BME280;35899;50.352;19.390;2023-03-31T07:59:05;96787.30;;;12.47;78.44
50011;BME280;35899;50.352;19.390;2023-03-31T08:01:50;96785.77;;;12.56;77.53
50011;BME280;35899;50.352;19.390;2023-03-31T08:04:17;96780.84;;;12.57;76.97
50011;BME280;35899;50.352;19.390;2023-03-31T08:06:44;96776.36;;;12.58;76.81
50011;BME280;35899;50.352;19.390;2023-03-31T08:09:10;96774.38;;;12.62;77.14
50011;BME280;35899;50.352;19.390;2023-03-31T08:11:37;96771.17;;;12.71;76.70
50011;BME280;35899;50.352;19.390;2023-03-31T08:14:03;96767.20;;;12.79;76.60
50011;BME280;35899;50.352;19.390;2023-03-31T08:16:30;96766.16;;;12.92;76.44
50011;BME280;35899;50.352;19.390;2023-03-31T08:18:56;96764.09;;;13.06;75.43
50011;BME280;35899;50.352;19.390;2023-03-31T08:21:27;96757.20;;;13.24;75.07
50011;BME280;35899;50.352;19.390;2023-03-31T08:23:58;96756.23;;;13.54;75.07
50011;BME280;35899;50.352;19.390;2023-03-31T08:26:27;96753.64;;;13.81;74.63
50011;BME280;35899;50.352;19.390;2023-03-31T08:28:56;96750.45;;;13.97;73.03
50011;BME280;35899;50.352;19.390;2023-03-31T08:31:31;96748.73;;;14.12;72.78
50011;BME280;35899;50.352;19.390;2023-03-31T08:33:58;96746.88;;;14.28;71.79
50011;BME280;35899;50.352;19.390;2023-03-31T08:36:24;96742.14;;;14.43;71.69
50011;BME280;35899;50.352;19.390;2023-03-31T08:38:56;96734.54;;;14.60;70.97
50011;BME280;35899;50.352;19.390;2023-03-31T08:46:50;96714.34;;;15.27;69.44
50011;BME280;35899;50.352;19.390;2023-03-31T08:49:18;96706.90;;;15.36;68.47
50011;BME280;35899;50.352;19.390;2023-03-31T08:51:46;96703.60;;;15.46;67.94
50011;BME280;35899;50.352;19.390;2023-03-31T08:54:15;96700.48;;;15.47;66.72
50011;BME280;35899;50.352;19.390;2023-03-31T08:56:44;96695.03;;;15.58;66.82
50011;BME280;35899;50.352;19.390;2023-03-31T08:59:17;96699.94;;;15.81;65.97
50011;BME280;35899;50.352;19.390;2023-03-31T09:09:34;96684.79;;;16.22;64.07
50011;BME280;35899;50.352;19.390;2023-03-31T09:12:07;96679.18;;;16.31;63.73
50011;BME280;35899;50.352;19.390;2023-03-31T09:14:40;96669.52;;;16.45;63.66
50011;BME280;35899;50.352;19.390;2023-03-31T09:19:49;96666.01;;;16.37;61.62
50011;BME280;35899;50.352;19.390;2023-03-31T09:22:28;96664.43;;;16.42;61.48
50011;BME280;35899;50.352;19.390;2023-03-31T09:25:04;96660.14;;;16.63;61.70
50011;BME280;35899;50.352;19.390;2023-03-31T09:31:06;96651.27;;;17.03;60.43
50011;BME280;35899;50.352;19.390;2023-03-31T09:33:34;96653.30;;;17.17;59.52
50011;BME280;35899;50.352;19.390;2023-03-31T09:36:12;96646.95;;;17.23;59.92
50011;BME280;35899;50.352;19.390;2023-03-31T09:38:43;96643.45;;;17.30;59.14
50011;BME280;35899;50.352;19.390;2023-03-31T09:41:15;96641.85;;;17.39;58.48
50011;BME280;35899;50.352;19.390;2023-03-31T09:44:15;96633.11;;;17.41;57.44
50011;BME280;35899;50.352;19.390;2023-03-31T09:46:46;96633.83;;;17.53;57.68
50011;BME280;35899;50.352;19.390;2023-03-31T09:49:18;96636.86;;;17.63;57.86
50011;BME280;35899;50.352;19.390;2023-03-31T09:52:13;96621.33;;;17.65;56.87
50011;BME280;35899;50.352;19.390;2023-03-31T10:05:37;96606.75;;;17.91;54.85
50011;BME280;35899;50.352;19.390;2023-03-31T10:13:51;96595.41;;;18.36;52.72
50011;BME280;35899;50.352;19.390;2023-03-31T10:16:21;96582.61;;;19.18;52.02
50011;BME280;35899;50.352;19.390;2023-03-31T10:19:10;96576.73;;;20.10;51.66
50011;BME280;35899;50.352;19.390;2023-03-31T10:21:38;96570.98;;;20.39;49.79
50011;BME280;35899;50.352;19.390;2023-03-31T10:24:09;96573.02;;;20.29;49.56
50011;BME280;35899;50.352;19.390;2023-03-31T10:26:37;96573.58;;;19.77;48.01
50011;BME280;35899;50.352;19.390;2023-03-31T10:29:12;96574.55;;;18.98;48.32
50011;BME280;35899;50.352;19.390;2023-03-31T10:31:45;96577.67;;;18.30;50.18
50011;BME280;35899;50.352;19.390;2023-03-31T10:34:14;96570.77;;;17.95;51.10
50011;BME280;35899;50.352;19.390;2023-03-31T10:36:47;96573.96;;;17.51;51.64
50011;BME280;35899;50.352;19.390;2023-03-31T10:39:17;96571.51;;;17.06;52.71
50011;BME280;35899;50.352;19.390;2023-03-31T10:41:49;96573.34;;;16.66;53.43
50011;BME280;35899;50.352;19.390;2023-03-31T10:44:31;96566.91;;;16.28;53.65
50011;BME280;35899;50.352;19.390;2023-03-31T10:47:04;96563.69;;;16.09;53.36
50011;BME280;35899;50.352;19.390;2023-03-31T10:49:36;96564.48;;;16.15;52.96
50011;BME280;35899;50.352;19.390;2023-03-31T10:52:18;96564.52;;;16.33;53.21
50011;BME280;35899;50.352;19.390;2023-03-31T10:54:47;96564.52;;;16.42;53.90
50011;BME280;35899;50.352;19.390;2023-03-31T10:57:16;96566.34;;;16.36;54.20
50011;BME280;35899;50.352;19.390;2023-03-31T11:03:53;96564.55;;;16.32;54.68
50011;BME280;35899;50.352;19.390;2023-03-31T11:06:35;96560.27;;;16.25;54.83
50011;BME280;35899;50.352;19.390;2023-03-31T11:09:15;96559.80;;;15.92;54.70
50011;BME280;35899;50.352;19.390;2023-03-31T11:14:53;96558.22;;;15.31;55.81
50011;BME280;35899;50.352;19.390;2023-03-31T11:24:21;96546.77;;;15.48;56.97
50011;BME280;35899;50.352;19.390;2023-03-31T11:34:40;96528.80;;;15.51;57.28
50011;BME280;35899;50.352;19.390;2023-03-31T11:37:29;96519.64;;;15.52;57.59
50011;BME280;35899;50.352;19.390;2023-03-31T11:42:40;96508.48;;;15.71;57.06
50011;BME280;35899;50.352;19.390;2023-03-31T11:47:42;96509.52;;;15.76;57.06
50011;BME280;35899;50.352;19.390;2023-03-31T11:50:13;96504.90;;;15.81;56.83
50011;BME280;35899;50.352;19.390;2023-03-31T11:53:05;96499.48;;;15.95;56.72
50011;BME280;35899;50.352;19.390;2023-03-31T11:59:10;96490.70;;;16.44;56.96
50011;BME280;35899;50.352;19.390;2023-03-31T12:01:51;96488.98;;;16.72;56.75
50011;BME280;35899;50.352;19.390;2023-03-31T12:04:41;96483.72;;;16.79;56.05
50011;BME280;35899;50.352;19.390;2023-03-31T12:09:56;96474.91;;;16.50;55.49
50011;BME280;35899;50.352;19.390;2023-03-31T12:12:50;96470.28;;;16.47;55.92
50011;BME280;35899;50.352;19.390;2023-03-31T12:18:44;96460.28;;;16.89;54.73
50011;BME280;35899;50.352;19.390;2023-03-31T12:21:17;96446.66;;;17.44;54.54
50011;BME280;35899;50.352;19.390;2023-03-31T12:24:11;96437.23;;;19.32;52.08
50011;BME280;35899;50.352;19.390;2023-03-31T12:43:16;96404.27;;;20.73;45.51
50011;BME280;35899;50.352;19.390;2023-03-31T12:48:34;96397.23;;;18.85;47.71
50011;BME280;35899;50.352;19.390;2023-03-31T12:56:22;96386.73;;;18.12;48.68
50011;BME280;35899;50.352;19.390;2023-03-31T12:58:51;96383.02;;;18.05;49.01
50011;BME280;35899;50.352;19.390;2023-03-31T13:04:31;96371.57;;;19.32;47.50
50011;BME280;35899;50.352;19.390;2023-03-31T13:06:59;96366.25;;;19.44;47.50
50011;BME280;35899;50.352;19.390;2023-03-31T13:11:58;96358.16;;;18.53;48.75
50011;BME280;35899;50.352;19.390;2023-03-31T13:14:36;96352.46;;;18.08;49.59
50011;BME280;35899;50.352;19.390;2023-03-31T13:17:12;96343.77;;;17.74;49.86
50011;BME280;35899;50.352;19.390;2023-03-31T13:19:41;96338.95;;;17.44;49.73
50011;BME280;35899;50.352;19.390;2023-03-31T13:34:47;96329.39;;;15.90;50.92
50011;BME280;35899;50.352;19.390;2023-03-31T13:50:52;96312.90;;;15.08;52.65
50011;BME280;35899;50.352;19.390;2023-03-31T13:56:22;96309.40;;;15.13;53.27
50011;BME280;35899;50.352;19.390;2023-03-31T14:04:39;96303.10;;;15.23;53.63
50011;BME280;35899;50.352;19.390;2023-03-31T14:07:15;96297.80;;;15.32;53.00
50011;BME280;35899;50.352;19.390;2023-03-31T14:09:45;96293.66;;;15.42;52.94
50011;BME280;35899;50.352;19.390;2023-03-31T14:14:56;96280.27;;;15.67;52.52
50011;BME280;35899;50.352;19.390;2023-03-31T14:17:32;96280.82;;;15.79;51.99
50011;BME280;35899;50.352;19.390;2023-03-31T14:20:12;96273.73;;;15.92;52.07
50011;BME280;35899;50.352;19.390;2023-03-31T14:40:13;96263.15;;;16.11;50.09
50011;BME280;35899;50.352;19.390;2023-03-31T14:42:45;96266.77;;;15.82;49.94
50011;BME280;35899;50.352;19.390;2023-03-31T14:45:18;96270.80;;;15.44;50.70
50011;BME280;35899;50.352;19.390;2023-03-31T14:50:35;96275.28;;;14.71;52.73
50011;BME280;35899;50.352;19.390;2023-03-31T14:53:04;96280.27;;;14.40;54.01
50011;BME280;35899;50.352;19.390;2023-03-31T14:55:40;96279.44;;;14.15;55.21
50011;BME280;35899;50.352;19.390;2023-03-31T14:58:26;96277.38;;;13.91;56.97
50011;BME280;35899;50.352;19.390;2023-03-31T15:00:55;96277.09;;;13.70;57.50
50011;BME280;35899;50.352;19.390;2023-03-31T15:03:23;96274.89;;;13.50;58.33
50011;BME280;35899;50.352;19.390;2023-03-31T15:05:55;96270.42;;;13.38;59.30
50011;BME280;35899;50.352;19.390;2023-03-31T15:08:24;96267.27;;;13.35;60.36
50011;BME280;35899;50.352;19.390;2023-03-31T15:10:53;96260.09;;;13.29;60.79
50011;BME280;35899;50.352;19.390;2023-03-31T15:13:42;96256.46;;;13.25;61.95
50011;BME280;35899;50.352;19.390;2023-03-31T15:16:20;96252.77;;;13.16;62.55
50011;BME280;35899;50.352;19.390;2023-03-31T15:18:55;96244.80;;;13.13;62.58
50011;BME280;35899;50.352;19.390;2023-03-31T15:21:24;96236.34;;;13.09;62.34
50011;BME280;35899;50.352;19.390;2023-03-31T15:23:56;96238.36;;;13.07;62.87
50011;BME280;35899;50.352;19.390;2023-03-31T15:26:29;96232.46;;;12.98;63.01
50011;BME280;35899;50.352;19.390;2023-03-31T15:31:45;96219.79;;;12.84;63.65
50011;BME280;35899;50.352;19.390;2023-03-31T15:34:26;96217.67;;;12.77;63.98
50011;BME280;35899;50.352;19.390;2023-03-31T15:36:56;96211.48;;;12.70;64.41
50011;BME280;35899;50.352;19.390;2023-03-31T15:39:24;96209.70;;;12.67;64.90
50011;BME280;35899;50.352;19.390;2023-03-31T15:41:53;96202.32;;;12.67;65.33
50011;BME280;35899;50.352;19.390;2023-03-31T15:47:06;96194.23;;;12.69;65.96
50011;BME280;35899;50.352;19.390;2023-03-31T15:49:36;96188.76;;;12.69;66.48
50011;BME280;35899;50.352;19.390;2023-03-31T15:52:27;96189.42;;;12.66;66.77
50011;BME280;35899;50.352;19.390;2023-03-31T15:54:52;96183.02;;;12.59;67.31
50011;BME280;35899;50.352;19.390;2023-03-31T15:57:19;96175.51;;;12.54;67.79
50011;BME280;35899;50.352;19.390;2023-03-31T15:59:48;96170.84;;;12.55;68.45
50011;BME280;35899;50.352;19.390;2023-03-31T16:02:43;96171.66;;;12.59;68.95
50011;BME280;35899;50.352;19.390;2023-03-31T16:05:20;96164.84;;;12.63;69.46
50011;BME280;35899;50.352;19.390;2023-03-31T16:07:54;96156.11;;;12.67;69.91
50011;BME280;35899;50.352;19.390;2023-03-31T16:10:22;96151.95;;;12.65;70.01
50011;BME280;35899;50.352;19.390;2023-03-31T16:12:57;96149.52;;;12.62;70.33
50011;BME280;35899;50.352;19.390;2023-03-31T16:15:29;96141.69;;;12.56;70.25
50011;BME280;35899;50.352;19.390;2023-03-31T16:18:01;96135.08;;;12.53;70.58
50011;BME280;35899;50.352;19.390;2023-03-31T16:20:32;96130.10;;;12.49;70.64
50011;BME280;35899;50.352;19.390;2023-03-31T16:23:10;96129.42;;;12.44;70.78
50011;BME280;35899;50.352;19.390;2023-03-31T16:25:39;96128.70;;;12.36;71.27
50011;BME280;35899;50.352;19.390;2023-03-31T16:28:08;96125.39;;;12.28;71.52
50011;BME280;35899;50.352;19.390;2023-03-31T16:30:42;96123.59;;;12.20;71.87
50011;BME280;35899;50.352;19.390;2023-03-31T16:35:42;96111.20;;;12.06;72.67
50011;BME280;35899;50.352;19.390;2023-03-31T16:38:11;96109.54;;;11.98;72.54
50011;BME280;35899;50.352;19.390;2023-03-31T16:40:40;96111.65;;;11.87;72.46
50011;BME280;35899;50.352;19.390;2023-03-31T16:43:18;96113.60;;;11.80;72.62
50011;BME280;35899;50.352;19.390;2023-03-31T16:45:51;96111.39;;;11.76;73.15